Time;durP1;ratioP1;P1;durP2;ratioP2;P2;SDS_P1;SDS_P2;PMS_P1;PMS_P2;Temp;Humidity;BMP_temperature;BMP_pressure;BME280_temperature;BME280_humidity;BME280_pressure;Samples;Min_cycle;Max_cycle;Signal;HPM_P1;HPM_P2
2023/08/14 00:00:59;;;;;;;3.70;2.40;;;;;;;24.29;38.71;99930.00;5070441;28;20030;-42
2023/08/14 00:03:24;;;;;;;4.93;2.50;;;;;;;24.32;38.73;99937.59;5070240;28;20100;-44
2023/08/14 00:05:50;;;;;;;3.75;2.90;;;;;;;24.43;38.69;99939.09;5070397;28;20445;-42
2023/08/14 00:08:16;;;;;;;3.10;2.28;;;;;;;24.31;38.68;99938.69;5070211;28;20487;-44
2023/08/14 00:10:41;;;;;;;3.65;2.70;;;;;;;24.20;39.13;99943.44;5070367;28;20031;-43
2023/08/14 00:13:06;;;;;;;4.95;3.10;;;;;;;24.30;39.05;99939.81;5070296;28;20431;-44
2023/08/14 00:15:32;;;;;;;4.65;2.97;;;;;;;24.35;39.10;99947.88;5070366;28;20035;-43
2023/08/14 00:17:57;;;;;;;4.30;2.70;;;;;;;24.58;38.87;99946.28;5070241;28;20137;-43
2023/08/14 00:20:23;;;;;;;3.88;2.45;;;;;;;24.73;38.69;99948.81;5070129;28;20397;-43
2023/08/14 00:22:48;;;;;;;4.03;2.60;;;;;;;24.66;38.53;99939.38;5070368;28;20525;-42
2023/08/14 00:25:14;;;;;;;3.72;2.40;;;;;;;24.77;38.62;99943.59;5070294;28;20028;-43
2023/08/14 00:27:39;;;;;;;4.50;2.67;;;;;;;24.81;38.53;99936.44;5070230;28;20055;-42
2023/08/14 00:30:05;;;;;;;4.80;2.72;;;;;;;24.85;38.53;99940.19;5070220;28;20029;-44
2023/08/14 00:32:31;;;;;;;3.97;2.63;;;;;;;24.95;38.62;99940.03;5069997;28;20106;-44
2023/08/14 00:34:56;;;;;;;5.00;2.50;;;;;;;24.96;38.57;99940.88;5070063;28;20480;-42
2023/08/14 00:37:25;;;;;;;6.80;2.45;;;;;;;25.00;38.69;99941.06;5069614;28;20029;-43
2023/08/14 00:39:50;;;;;;;5.75;2.78;;;;;;;24.98;38.83;99936.75;5070437;28;20052;-42
2023/08/14 00:42:16;;;;;;;5.00;2.67;;;;;;;25.06;38.98;99940.72;5073750;28;20067;-43
2023/08/14 00:44:41;;;;;;;4.22;2.58;;;;;;;24.92;39.13;99937.09;5073664;28;20104;-42
2023/08/14 00:47:08;;;;;;;6.20;2.70;;;;;;;24.87;39.16;99940.72;5073566;28;20099;-42
2023/08/14 00:49:34;;;;;;;3.60;2.60;;;;;;;24.93;39.15;99936.00;5073360;28;20040;-44
2023/08/14 00:52:00;;;;;;;5.53;2.58;;;;;;;24.64;39.84;99936.16;5073630;28;20051;-43
2023/08/14 00:54:26;;;;;;;5.20;2.58;;;;;;;24.75;39.54;99933.00;5073271;28;20058;-44
2023/08/14 00:56:51;;;;;;;4.88;2.72;;;;;;;24.83;39.35;99938.84;5073651;28;20487;-43
2023/08/14 00:59:17;;;;;;;4.78;2.80;;;;;;;24.84;39.80;99943.22;5073180;28;20033;-43
2023/08/14 01:01:42;;;;;;;4.10;2.60;;;;;;;24.82;39.88;99948.94;5073204;28;20024;-43
2023/08/14 01:04:08;;;;;;;3.28;2.40;;;;;;;24.87;39.63;99939.91;5073029;28;20074;-44
2023/08/14 01:06:34;;;;;;;3.40;2.60;;;;;;;24.81;39.46;99946.50;5073218;28;20055;-41
2023/08/14 01:08:59;;;;;;;7.68;3.10;;;;;;;24.61;39.90;99944.88;5073492;28;20028;-43
2023/08/14 01:11:43;;;;;;;4.25;3.10;;;;;;;24.64;40.13;99942.41;5073122;28;20040;-41
2023/08/14 01:14:19;;;;;;;3.38;2.58;;;;;;;24.45;40.61;99942.34;5073452;28;20060;-42
2023/08/14 01:16:51;;;;;;;5.15;3.10;;;;;;;24.33;41.00;99941.91;5072631;28;20024;-43
2023/08/14 01:19:24;;;;;;;4.28;3.20;;;;;;;24.36;40.61;99933.19;5072961;28;20024;-42
2023/08/14 01:21:52;;;;;;;6.50;3.70;;;;;;;24.24;40.83;99936.31;5072936;28;20471;-42
2023/08/14 01:24:39;;;;;;;5.60;3.67;;;;;;;24.17;41.05;99939.38;5072924;28;20468;-42
2023/08/14 01:27:04;;;;;;;6.22;3.80;;;;;;;24.15;41.17;99941.59;5072740;28;20381;-41
2023/08/14 01:29:31;;;;;;;6.75;3.90;;;;;;;24.22;41.05;99945.84;5072932;28;20103;-42
2023/08/14 01:31:56;;;;;;;5.22;3.80;;;;;;;24.22;40.76;99933.09;5072887;28;20418;-42
2023/08/14 01:34:23;;;;;;;6.90;3.80;;;;;;;24.28;40.83;99944.72;5072711;28;20082;-42
2023/08/14 01:37:12;;;;;;;4.90;3.90;;;;;;;24.31;40.90;99944.94;5072626;28;20028;-42
2023/08/14 01:39:49;;;;;;;4.32;3.78;;;;;;;23.95;41.40;99947.22;5072894;28;20089;-42
2023/08/14 01:42:21;;;;;;;5.00;3.83;;;;;;;23.52;42.07;99956.03;5072602;28;20404;-42
2023/08/14 01:44:50;;;;;;;6.65;3.75;;;;;;;22.76;43.52;99943.75;5072314;28;20081;-42
2023/08/14 01:47:16;;;;;;;4.25;3.42;;;;;;;22.71;43.87;99952.72;5072340;28;20107;-42
2023/08/14 01:49:44;;;;;;;5.18;3.85;;;;;;;22.67;43.92;99956.28;5072515;28;20416;-41
2023/08/14 01:52:09;;;;;;;6.03;4.00;;;;;;;23.07;43.19;99938.97;5071661;28;20031;-41
2023/08/14 01:54:35;;;;;;;5.63;4.15;;;;;;;23.19;42.98;99944.06;5072237;28;20020;-43
2023/08/14 01:57:01;;;;;;;4.80;3.97;;;;;;;23.01;43.45;99938.16;5072118;28;20028;-42
2023/08/14 01:59:40;;;;;;;6.10;3.90;;;;;;;23.11;43.35;99940.03;5072203;28;20396;-41
2023/08/14 02:02:05;;;;;;;5.68;4.00;;;;;;;23.10;43.24;99932.19;5072271;28;20025;-43
2023/08/14 02:04:31;;;;;;;8.85;3.50;;;;;;;23.13;43.22;99940.59;5072028;28;20028;-41
2023/08/14 02:06:56;;;;;;;4.97;3.72;;;;;;;22.64;44.52;99933.25;5072042;28;20032;-42
2023/08/14 02:09:21;;;;;;;5.57;3.30;;;;;;;22.99;43.69;99931.41;5072027;28;20020;-42
2023/08/14 02:11:47;;;;;;;4.50;3.50;;;;;;;22.98;43.88;99927.91;5071610;28;20023;-42
2023/08/14 02:14:12;;;;;;;4.50;3.60;;;;;;;23.11;43.74;99931.09;5071627;28;20028;-43
2023/08/14 02:16:38;;;;;;;4.78;3.25;;;;;;;23.09;43.65;99930.56;5071987;28;20103;-42
2023/08/14 02:19:03;;;;;;;5.78;3.33;;;;;;;22.86;44.35;99935.56;5071815;28;20027;-41
2023/08/14 02:21:28;;;;;;;4.38;3.20;;;;;;;22.70;44.34;99931.31;5071425;28;20100;-43
2023/08/14 02:23:54;;;;;;;5.07;3.40;;;;;;;22.85;44.41;99925.81;5071557;28;20028;-41
2023/08/14 02:26:19;;;;;;;5.43;3.60;;;;;;;22.71;44.34;99913.94;5071545;28;20024;-44
2023/08/14 02:28:45;;;;;;;7.38;3.60;;;;;;;23.11;43.85;99929.19;5071735;28;20017;-42
2023/08/14 02:31:10;;;;;;;6.20;3.50;;;;;;;22.67;44.63;99927.25;5071677;28;20024;-42
2023/08/14 02:33:36;;;;;;;4.78;3.00;;;;;;;22.65;44.66;99937.56;5071392;28;20419;-43
2023/08/14 02:36:01;;;;;;;5.72;3.28;;;;;;;22.65;44.81;99937.56;5071571;28;20031;-42
2023/08/14 02:38:30;;;;;;;4.43;3.45;;;;;;;22.48;45.41;99940.63;5071226;28;20053;-43
2023/08/14 02:40:55;;;;;;;4.07;3.33;;;;;;;22.79;44.60;99941.31;5071269;28;20488;-42
2023/08/14 02:43:21;;;;;;;5.10;3.50;;;;;;;22.69;44.96;99932.41;5071209;28;20071;-42
2023/08/14 02:45:46;;;;;;;4.15;3.47;;;;;;;22.48;45.55;99939.81;5071465;28;20032;-42
2023/08/14 02:48:12;;;;;;;5.93;3.70;;;;;;;22.84;44.64;99937.75;5071225;28;20028;-42
2023/08/14 02:50:37;;;;;;;5.22;3.40;;;;;;;22.70;44.75;99926.69;5071163;28;20028;-42
2023/08/14 02:53:03;;;;;;;4.53;3.33;;;;;;;22.72;44.83;99931.84;5071082;28;20029;-41
2023/08/14 02:55:28;;;;;;;6.40;3.67;;;;;;;22.59;45.34;99933.28;5071355;28;20024;-41
2023/08/14 02:57:53;;;;;;;5.38;3.50;;;;;;;22.85;44.64;99936.66;5071333;28;20385;-42
2023/08/14 03:00:20;;;;;;;4.75;3.30;;;;;;;22.94;44.35;99924.13;5071155;28;20055;-43
2023/08/14 03:02:46;;;;;;;4.97;3.42;;;;;;;22.51;45.34;99928.44;5070185;28;20425;-40
2023/08/14 03:05:12;;;;;;;6.20;3.53;;;;;;;22.65;45.16;99930.25;5070959;28;20036;-42
2023/08/14 03:07:38;;;;;;;12.57;3.80;;;;;;;22.62;45.09;99935.44;5071022;28;20033;-42
2023/08/14 03:10:04;;;;;;;3.78;3.10;;;;;;;22.42;45.61;99928.19;5070953;28;20089;-41
2023/08/14 03:12:29;;;;;;;5.65;3.20;;;;;;;22.54;45.61;99933.28;5070937;28;20508;-42
2023/08/14 03:14:55;;;;;;;6.40;3.50;;;;;;;22.68;45.09;99926.16;5070885;28;20451;-41
2023/08/14 03:17:20;;;;;;;5.40;3.20;;;;;;;22.44;45.65;99928.72;5071045;28;20036;-42
2023/08/14 03:19:45;;;;;;;7.00;3.47;;;;;;;22.22;45.97;99929.88;5070695;28;20021;-42
2023/08/14 03:22:11;;;;;;;3.83;3.22;;;;;;;22.67;45.07;99923.72;5070785;28;20016;-42
2023/08/14 03:24:37;;;;;;;4.95;3.22;;;;;;;22.69;44.97;99925.06;5070986;28;20020;-42
2023/08/14 03:27:02;;;;;;;5.72;3.58;;;;;;;22.98;44.53;99921.63;5070723;28;20552;-41
2023/08/14 03:29:28;;;;;;;4.72;3.38;;;;;;;22.72;45.26;99924.53;5070748;28;20024;-42
2023/08/14 03:31:53;;;;;;;6.85;4.32;;;;;;;22.89;44.73;99924.16;5070560;28;20021;-42
2023/08/14 03:34:19;;;;;;;8.10;6.10;;;;;;;22.69;45.12;99932.41;5070503;28;20098;-41
2023/08/14 03:36:44;;;;;;;6.18;3.83;;;;;;;22.69;45.14;99925.06;5070340;28;20111;-41
2023/08/14 03:39:10;;;;;;;6.10;3.53;;;;;;;22.58;45.46;99927.03;5070292;28;20060;-41
2023/08/14 03:41:35;;;;;;;5.25;3.38;;;;;;;22.47;45.60;99940.94;5070554;28;20104;-42
2023/08/14 03:44:01;;;;;;;6.22;3.55;;;;;;;22.89;44.72;99931.50;5070301;28;20408;-41
2023/08/14 03:46:26;;;;;;;4.85;3.72;;;;;;;22.91;44.84;99930.09;5070338;28;20020;-41
2023/08/14 03:48:52;;;;;;;5.47;3.60;;;;;;;23.02;44.64;99925.44;5070221;28;20086;-40
2023/08/14 03:51:17;;;;;;;5.47;3.95;;;;;;;23.20;44.24;99929.41;5070318;28;20028;-41
2023/08/14 03:53:42;;;;;;;4.97;3.35;;;;;;;23.33;43.87;99931.47;5070418;28;20029;-43
2023/08/14 03:56:08;;;;;;;5.70;3.45;;;;;;;23.23;44.13;99926.94;5070512;28;20062;-42
2023/08/14 03:58:33;;;;;;;4.85;3.20;;;;;;;23.39;43.90;99935.75;5070432;28;20500;-44
2023/08/14 04:00:59;;;;;;;36.30;24.27;;;;;;;23.50;43.67;99939.22;5070398;28;20470;-41
2023/08/14 04:03:24;;;;;;;24.10;14.32;;;;;;;23.64;43.29;99936.63;5070452;28;20469;-41
2023/08/14 04:05:59;;;;;;;12.63;7.35;;;;;;;23.87;43.23;99939.72;5052402;28;20271;-41
2023/08/14 04:08:24;;;;;;;6.13;4.18;;;;;;;23.98;42.71;99935.78;5070434;28;20095;-42
2023/08/14 04:10:54;;;;;;;5.78;3.35;;;;;;;24.32;42.54;99934.88;5070269;28;20032;-42
2023/08/14 04:13:20;;;;;;;5.50;3.25;;;;;;;24.68;41.90;99945.34;5070252;28;20550;-41
2023/08/14 04:15:45;;;;;;;3.95;3.08;;;;;;;25.03;41.17;99954.09;5073913;28;20029;-43
2023/08/14 04:18:10;;;;;;;4.82;3.53;;;;;;;25.35;40.66;99958.81;5074077;28;20030;-41
2023/08/14 04:20:36;;;;;;;6.15;3.45;;;;;;;25.71;39.90;99963.66;5074316;28;20077;-41
2023/08/14 04:23:01;;;;;;;8.30;3.38;;;;;;;26.02;39.22;99971.31;5074202;28;20016;-42
2023/08/14 04:25:28;;;;;;;6.18;3.17;;;;;;;26.32;38.40;99976.19;5055818;28;20021;-42
2023/08/14 04:27:54;;;;;;;7.15;3.90;;;;;;;26.67;37.77;99968.44;5073891;28;20036;-46
2023/08/14 04:30:19;;;;;;;6.22;3.50;;;;;;;27.01;37.06;99969.84;5073589;28;20029;-41
2023/08/14 04:32:45;;;;;;;9.23;4.13;;;;;;;27.26;36.72;99979.44;5073717;28;20094;-42
2023/08/14 04:35:11;;;;;;;6.95;4.30;;;;;;;27.52;36.60;99975.28;5073968;28;20115;-43
2023/08/14 04:37:36;;;;;;;5.22;3.83;;;;;;;27.81;36.36;99978.31;5082462;28;20067;-43
2023/08/14 04:40:04;;;;;;;5.95;3.90;;;;;;;28.08;35.88;99968.34;5081944;28;20109;-44
2023/08/14 04:42:31;;;;;;;6.25;4.03;;;;;;;28.54;35.33;99977.22;5077587;28;20032;-42
2023/08/14 04:44:56;;;;;;;6.95;3.63;;;;;;;28.88;34.75;99989.38;5083625;28;20016;-43
2023/08/14 04:47:22;;;;;;;7.82;3.95;;;;;;;28.78;34.28;99988.56;5081597;28;20024;-42
2023/08/14 04:49:48;;;;;;;5.93;3.50;;;;;;;29.08;33.83;99987.97;5058598;28;20024;-42
2023/08/14 04:52:13;;;;;;;7.65;3.95;;;;;;;29.37;33.36;99985.38;5074158;28;20081;-43
2023/08/14 04:54:38;;;;;;;5.80;3.60;;;;;;;29.50;33.07;99989.09;5073879;28;20021;-46
2023/08/14 04:57:04;;;;;;;9.73;4.72;;;;;;;29.36;33.38;100000.25;5074253;28;20107;-46
2023/08/14 04:59:29;;;;;;;9.35;4.25;;;;;;;29.35;33.57;99992.34;5073690;28;20024;-42
2023/08/14 05:01:59;;;;;;;6.63;3.80;;;;;;;29.52;32.93;100000.53;5077087;28;20096;-41
2023/08/14 05:04:24;;;;;;;10.90;7.15;;;;;;;29.71;33.12;99991.16;5074488;28;20352;-44
2023/08/14 05:06:51;;;;;;;18.85;11.75;;;;;;;30.05;32.03;100000.47;5091755;28;20031;-44
2023/08/14 05:09:17;;;;;;;6.93;4.05;;;;;;;30.52;31.63;100012.22;5092061;28;20035;-44
2023/08/14 05:11:43;;;;;;;5.53;3.40;;;;;;;30.92;30.51;100008.28;5093575;28;20024;-43
2023/08/14 05:14:08;;;;;;;4.70;3.67;;;;;;;31.13;30.65;100011.03;5093051;28;20027;-43
2023/08/14 05:16:34;;;;;;;9.65;3.90;;;;;;;31.50;30.41;100003.00;5093398;28;20022;-44
2023/08/14 05:18:59;;;;;;;9.45;4.20;;;;;;;31.85;30.03;100005.38;5093078;28;20115;-44
2023/08/14 05:21:24;;;;;;;8.25;4.00;;;;;;;31.90;29.90;100005.97;5091585;28;20085;-42
2023/08/14 05:23:50;;;;;;;9.32;3.70;;;;;;;32.29;29.19;100002.94;5091031;28;20020;-42
2023/08/14 05:26:15;;;;;;;8.68;3.58;;;;;;;32.42;28.64;100012.00;5090086;28;20016;-42
2023/08/14 05:28:41;;;;;;;4.97;3.38;;;;;;;32.60;28.75;100005.16;5091114;28;20040;-43
2023/08/14 05:31:07;;;;;;;4.72;3.47;;;;;;;32.73;28.62;100004.00;5091761;28;20024;-44
2023/08/14 05:33:33;;;;;;;6.93;3.85;;;;;;;33.10;28.10;100006.69;5091510;28;20502;-45
2023/08/14 05:35:58;;;;;;;9.43;3.72;;;;;;;33.25;27.70;99993.34;5092262;28;20099;-43
2023/08/14 05:38:24;;;;;;;5.07;3.30;;;;;;;33.81;27.43;99998.81;5092679;28;20520;-43
2023/08/14 05:40:49;;;;;;;5.72;3.70;;;;;;;33.85;27.18;100007.19;5092722;28;20133;-44
2023/08/14 05:43:15;;;;;;;7.25;4.75;;;;;;;33.70;26.87;100000.50;5092632;28;20024;-42
2023/08/14 05:45:45;;;;;;;14.23;6.20;;;;;;;33.35;27.59;100014.09;5092406;28;20024;-45
2023/08/14 05:48:11;;;;;;;10.63;4.20;;;;;;;33.84;26.95;100000.09;5092971;28;20054;-43
2023/08/14 05:50:39;;;;;;;5.40;3.80;;;;;;;34.43;26.24;100012.22;5092297;28;20194;-45
2023/08/14 05:53:06;;;;;;;5.63;3.33;;;;;;;34.82;25.97;100010.38;5092117;28;20088;-43
2023/08/14 05:55:33;;;;;;;6.38;3.40;;;;;;;35.11;25.33;100010.19;5091530;28;20024;-43
2023/08/14 05:57:59;;;;;;;6.25;3.45;;;;;;;35.47;25.02;100011.75;5092118;28;20060;-42
2023/08/14 06:00:25;;;;;;;9.27;3.17;;;;;;;35.76;25.01;100007.56;5091969;28;20024;-43
2023/08/14 06:02:51;;;;;;;4.07;3.03;;;;;;;35.81;24.56;100012.81;5092371;28;20024;-43
2023/08/14 06:05:17;;;;;;;4.68;4.00;;;;;;;35.71;24.39;100018.13;5092439;28;20048;-44
2023/08/14 06:07:42;;;;;;;5.78;3.30;;;;;;;35.49;24.64;100008.59;5092217;28;20525;-43
2023/08/14 06:10:08;;;;;;;6.18;3.10;;;;;;;35.11;25.32;100012.94;5092583;28;20020;-42
2023/08/14 06:12:34;;;;;;;5.50;3.00;;;;;;;34.98;25.30;100012.31;5092156;28;20027;-42
2023/08/14 06:14:59;;;;;;;5.90;3.10;;;;;;;35.15;25.11;100019.38;5092201;28;20146;-42
2023/08/14 06:17:26;;;;;;;6.80;3.42;;;;;;;35.40;25.29;100019.91;5092333;28;20027;-42
2023/08/14 06:19:51;;;;;;;5.38;3.50;;;;;;;35.04;25.61;100016.38;5091980;28;20454;-43
2023/08/14 06:22:17;;;;;;;7.45;2.80;;;;;;;35.21;25.32;100024.25;5091911;28;20099;-45
2023/08/14 06:24:43;;;;;;;5.03;3.13;;;;;;;34.80;26.09;100023.75;5091785;28;20031;-42
2023/08/14 06:27:09;;;;;;;3.92;2.90;;;;;;;35.24;25.71;100025.50;5091708;28;20028;-44
2023/08/14 06:29:34;;;;;;;5.60;3.03;;;;;;;35.49;25.48;100027.97;5091933;28;20024;-43
2023/08/14 06:32:00;;;;;;;4.72;3.03;;;;;;;35.79;25.38;100023.41;5091837;28;20028;-43
2023/08/14 06:34:27;;;;;;;8.50;3.22;;;;;;;35.64;25.03;100024.28;5091799;28;20036;-44
2023/08/14 06:36:52;;;;;;;6.10;3.00;;;;;;;34.54;26.43;100029.03;5091217;28;20499;-43
2023/08/14 06:39:18;;;;;;;4.95;2.90;;;;;;;35.22;25.78;100027.81;5090980;28;20082;-43
2023/08/14 06:41:43;;;;;;;5.88;2.90;;;;;;;35.86;25.17;100030.28;5090979;28;20545;-45
2023/08/14 06:44:09;;;;;;;3.33;2.80;;;;;;;36.53;24.48;100027.06;5091040;28;20047;-43
2023/08/14 06:46:35;;;;;;;6.88;3.20;;;;;;;36.90;24.35;100021.69;5091292;28;20020;-43
2023/08/14 06:49:00;;;;;;;5.43;3.95;;;;;;;36.46;24.56;100019.44;5090823;28;20031;-44
2023/08/14 06:51:26;;;;;;;4.88;3.20;;;;;;;35.12;26.05;100022.84;5090984;28;20024;-43
2023/08/14 06:53:51;;;;;;;5.00;3.85;;;;;;;35.10;26.44;100028.75;5091016;28;20017;-46
2023/08/14 06:56:17;;;;;;;6.32;3.20;;;;;;;36.18;25.02;100023.34;5090741;28;20027;-45
2023/08/14 06:58:42;;;;;;;4.57;2.75;;;;;;;37.02;24.45;100025.41;5090936;28;20410;-42
2023/08/14 07:01:08;;;;;;;6.13;3.20;;;;;;;36.71;24.44;100032.88;5090911;28;20102;-44
2023/08/14 07:03:33;;;;;;;5.80;3.25;;;;;;;37.25;24.19;100036.41;5090857;28;20085;-45
2023/08/14 07:05:58;;;;;;;6.25;3.10;;;;;;;37.65;23.54;100029.38;5090895;28;20020;-42
2023/08/14 07:08:24;;;;;;;3.95;2.67;;;;;;;37.96;23.12;100039.19;5090908;28;20103;-44
2023/08/14 07:10:50;;;;;;;4.32;2.70;;;;;;;38.18;22.89;100034.66;5090838;28;20030;-44
2023/08/14 07:13:16;;;;;;;3.83;2.65;;;;;;;37.50;23.47;100025.59;5090698;28;20042;-43
2023/08/14 07:15:41;;;;;;;3.65;2.70;;;;;;;37.94;23.26;100035.97;5090724;28;20458;-44
2023/08/14 07:18:08;;;;;;;4.57;2.67;;;;;;;37.84;22.83;100039.47;5090897;28;20504;-43
2023/08/14 07:20:33;;;;;;;4.97;2.70;;;;;;;37.60;22.72;100032.44;5090652;28;20024;-43
2023/08/14 07:22:59;;;;;;;2.97;2.67;;;;;;;37.36;23.01;100038.13;5090808;28;20019;-43
2023/08/14 07:25:25;;;;;;;3.95;2.70;;;;;;;37.47;23.58;100029.13;5090471;28;20094;-45
2023/08/14 07:27:50;;;;;;;4.30;2.90;;;;;;;36.24;24.41;100023.84;5090890;28;20035;-44
2023/08/14 07:30:16;;;;;;;8.05;2.72;;;;;;;35.88;25.38;100022.41;5090747;28;20085;-42
2023/08/14 07:32:41;;;;;;;7.95;2.70;;;;;;;36.44;24.36;100019.00;5090280;28;20377;-42
2023/08/14 07:35:07;;;;;;;2.78;2.47;;;;;;;36.69;23.79;100018.59;5090636;28;20469;-42
2023/08/14 07:37:32;;;;;;;3.85;2.50;;;;;;;37.15;23.43;100018.47;5090457;28;20436;-44
2023/08/14 07:39:58;;;;;;;5.28;2.80;;;;;;;37.78;23.08;100022.38;5090154;28;20015;-45
2023/08/14 07:42:23;;;;;;;5.25;2.60;;;;;;;38.07;22.56;100014.28;5090301;28;20107;-44
2023/08/14 07:44:49;;;;;;;5.97;2.70;;;;;;;38.40;22.35;100007.81;5090288;28;20020;-42
2023/08/14 07:47:14;;;;;;;3.10;2.58;;;;;;;38.06;22.31;100009.91;5090504;28;20023;-44
2023/08/14 07:49:39;;;;;;;7.93;2.75;;;;;;;37.88;22.13;100006.97;5094205;28;20028;-46
2023/08/14 07:52:06;;;;;;;4.00;2.80;;;;;;;37.61;22.36;100012.66;5097196;28;20081;-43
2023/08/14 07:54:31;;;;;;;3.90;2.50;;;;;;;36.98;22.81;100011.50;5096832;28;20044;-42
2023/08/14 07:56:57;;;;;;;2.97;2.45;;;;;;;36.85;23.13;100010.13;5097038;28;20062;-45
2023/08/14 07:59:22;;;;;;;3.75;2.67;;;;;;;37.54;22.65;100002.25;5096932;28;20024;-44
2023/08/14 08:01:48;;;;;;;3.63;2.50;;;;;;;38.18;21.61;100006.88;5097114;28;20020;-44
2023/08/14 08:04:14;;;;;;;3.22;2.78;;;;;;;38.53;21.54;100006.34;5097153;28;20174;-44
2023/08/14 08:06:39;;;;;;;4.40;2.67;;;;;;;38.80;21.87;100008.88;5097233;28;20019;-44
2023/08/14 08:09:05;;;;;;;3.15;2.38;;;;;;;39.08;21.59;100004.66;5096806;28;20030;-45
2023/08/14 08:11:30;;;;;;;4.85;2.78;;;;;;;38.92;21.52;100008.56;5097107;28;20060;-42
2023/08/14 08:13:56;;;;;;;5.20;2.38;;;;;;;39.15;21.69;100006.66;5096822;28;20024;-42
2023/08/14 08:16:21;;;;;;;3.13;2.50;;;;;;;39.07;20.84;100008.63;5096880;28;20085;-45
2023/08/14 08:18:47;;;;;;;5.40;2.55;;;;;;;39.24;21.35;99998.75;5097106;28;20035;-44
2023/08/14 08:21:12;;;;;;;3.80;2.70;;;;;;;39.43;20.59;100001.22;5097181;28;20024;-43
2023/08/14 08:23:38;;;;;;;3.55;2.72;;;;;;;39.59;20.14;100000.09;5097157;28;20085;-44
2023/08/14 08:26:03;;;;;;;4.28;2.58;;;;;;;39.75;20.11;99991.34;5096947;28;20429;-42
2023/08/14 08:28:29;;;;;;;3.88;2.55;;;;;;;39.94;20.26;99995.75;5097274;28;20054;-45
2023/08/14 08:30:55;;;;;;;2.85;2.47;;;;;;;39.47;20.21;99984.53;5097039;28;20452;-43
2023/08/14 08:33:20;;;;;;;5.05;2.40;;;;;;;39.45;20.17;99990.50;5096528;28;20188;-43
2023/08/14 08:35:46;;;;;;;2.92;2.42;;;;;;;39.55;19.97;99990.94;5097179;28;20023;-43
2023/08/14 08:38:11;;;;;;;3.00;2.42;;;;;;;39.26;19.99;99988.84;5096557;28;20135;-44
2023/08/14 08:40:40;;;;;;;5.25;2.60;;;;;;;38.86;20.23;99987.88;5096877;28;20476;-43
2023/08/14 08:43:06;;;;;;;5.00;2.40;;;;;;;38.92;19.80;99991.06;5096739;28;20024;-44
2023/08/14 08:45:34;;;;;;;4.57;2.40;;;;;;;38.97;19.91;99989.88;5096717;28;20032;-45
2023/08/14 08:48:05;;;;;;;4.00;2.20;;;;;;;39.19;19.69;99983.25;5096055;28;20070;-45
2023/08/14 08:50:31;;;;;;;2.60;2.15;;;;;;;38.80;20.12;99977.50;5096224;28;20107;-44
2023/08/14 08:52:57;;;;;;;3.00;2.17;;;;;;;38.88;19.91;99973.56;5095980;28;20107;-45
2023/08/14 08:55:23;;;;;;;2.50;2.20;;;;;;;38.65;19.88;99982.19;5096467;28;20077;-43
2023/08/14 08:57:48;;;;;;;3.85;2.20;;;;;;;39.13;19.65;99970.91;5096363;28;20036;-44
2023/08/14 09:00:14;;;;;;;3.97;2.60;;;;;;;39.56;19.62;99976.59;5094822;28;20474;-45
2023/08/14 09:02:40;;;;;;;2.80;2.45;;;;;;;40.16;18.79;99974.28;5092447;28;20027;-44
2023/08/14 09:05:06;;;;;;;3.78;2.40;;;;;;;40.32;18.59;99966.28;5093328;28;20020;-43
2023/08/14 09:07:32;;;;;;;2.60;2.40;;;;;;;40.27;19.06;99972.28;5093352;28;20016;-45
2023/08/14 09:09:58;;;;;;;3.15;2.50;;;;;;;40.46;18.96;99973.84;5093636;28;20028;-43
2023/08/14 09:12:23;;;;;;;2.58;2.30;;;;;;;40.34;19.09;99969.47;5093310;28;20085;-44
2023/08/14 09:15:05;;;;;;;2.63;2.40;;;;;;;40.21;19.02;99971.88;5092996;28;20020;-44
2023/08/14 09:17:30;;;;;;;4.35;2.75;;;;;;;39.83;18.90;99968.69;5093494;28;20107;-43
2023/08/14 09:19:56;;;;;;;5.32;2.80;;;;;;;38.97;20.54;99964.84;5093207;28;20096;-42
2023/08/14 09:22:22;;;;;;;3.35;2.70;;;;;;;39.12;20.37;99971.31;5092517;28;20397;-43
2023/08/14 09:24:48;;;;;;;3.33;2.30;;;;;;;39.14;19.79;99966.94;5093275;28;20027;-42
2023/08/14 09:27:13;;;;;;;4.40;2.90;;;;;;;39.10;20.09;99974.47;5093053;28;20023;-44
2023/08/14 09:29:39;;;;;;;4.95;2.55;;;;;;;38.91;20.32;99959.66;5092745;28;20032;-43
2023/08/14 09:32:04;;;;;;;3.10;2.60;;;;;;;38.84;20.40;99965.22;5092372;28;20020;-42
2023/08/14 09:34:30;;;;;;;5.25;2.80;;;;;;;38.61;20.21;99962.69;5093034;28;20032;-44
2023/08/14 09:36:57;;;;;;;2.83;2.50;;;;;;;38.42;20.68;99960.97;5092907;28;20034;-43
2023/08/14 09:39:23;;;;;;;4.30;2.58;;;;;;;38.17;21.07;99954.47;5092609;28;20048;-41
2023/08/14 09:41:49;;;;;;;6.75;2.78;;;;;;;38.33;20.96;99953.00;5093048;28;20032;-43
2023/08/14 09:44:18;;;;;;;5.95;2.90;;;;;;;38.26;20.57;99955.72;5092749;28;20036;-43
2023/08/14 09:46:44;;;;;;;3.20;2.75;;;;;;;37.85;21.01;99955.78;5092359;28;20043;-44
2023/08/14 09:49:09;;;;;;;4.07;2.88;;;;;;;37.87;20.84;99956.22;5092374;28;20032;-42
2023/08/14 09:51:35;;;;;;;3.47;2.58;;;;;;;37.83;20.84;99947.03;5092437;28;20118;-42
2023/08/14 09:54:02;;;;;;;3.42;2.65;;;;;;;37.64;21.01;99944.47;5092344;28;20036;-44
2023/08/14 09:56:28;;;;;;;6.25;2.70;;;;;;;37.63;21.33;99954.78;5092339;28;20024;-43
2023/08/14 09:58:54;;;;;;;4.57;2.80;;;;;;;37.33;21.69;99944.56;5092307;28;20050;-43
2023/08/14 10:01:21;;;;;;;4.28;2.78;;;;;;;36.68;21.95;99947.72;5092252;28;20476;-42
2023/08/14 10:03:51;;;;;;;4.88;2.70;;;;;;;36.95;22.36;99943.69;5092088;28;20029;-42
2023/08/14 10:06:18;;;;;;;4.68;2.72;;;;;;;37.40;22.10;99940.28;5091998;28;20035;-41
2023/08/14 10:08:44;;;;;;;3.10;2.80;;;;;;;37.59;21.85;99937.28;5092277;28;20034;-43
2023/08/14 10:11:16;;;;;;;4.22;2.63;;;;;;;37.62;21.63;99942.09;5092257;28;20043;-43
2023/08/14 10:14:04;;;;;;;3.20;2.72;;;;;;;37.60;21.93;99936.09;5091891;28;20077;-44
2023/08/14 10:16:40;;;;;;;3.67;3.28;;;;;;;36.69;22.19;99927.13;5091894;28;20027;-46
2023/08/14 10:19:13;;;;;;;5.18;3.67;;;;;;;37.49;21.30;99927.69;5091778;28;20059;-42
2023/08/14 10:21:40;;;;;;;4.53;2.90;;;;;;;37.69;21.52;99930.25;5091360;28;20035;-46
2023/08/14 10:24:07;;;;;;;3.22;2.60;;;;;;;37.80;21.55;99922.03;5091750;28;20020;-45
2023/08/14 10:26:33;;;;;;;8.13;2.80;;;;;;;37.89;21.51;99925.25;5091263;28;20032;-45
2023/08/14 10:28:59;;;;;;;3.42;2.70;;;;;;;38.19;20.88;99918.78;5091115;28;20083;-46
2023/08/14 10:31:28;;;;;;;4.22;2.92;;;;;;;38.21;20.86;99922.75;5091644;28;20016;-43
2023/08/14 10:33:54;;;;;;;;;;;;;;;38.46;20.64;99917.34;5091764;28;20093;-46
2023/08/14 10:36:20;;;;;;;4.57;2.80;;;;;;;38.37;20.76;99910.56;5091918;28;19923;-43
2023/08/14 10:38:46;;;;;;;3.80;3.00;;;;;;;38.46;20.89;99900.69;5091351;28;20052;-42
2023/08/14 10:41:16;;;;;;;3.88;3.42;;;;;;;38.31;21.25;99908.13;5091312;28;20035;-43
2023/08/14 10:43:42;;;;;;;4.90;2.75;;;;;;;38.39;20.93;99911.75;5090951;28;20050;-44
2023/08/14 10:46:09;;;;;;;3.40;2.40;;;;;;;37.95;21.09;99904.31;5091240;28;20027;-45
2023/08/14 10:48:38;;;;;;;2.92;2.40;;;;;;;37.91;21.06;99900.72;5091414;28;20036;-44
2023/08/14 10:51:10;;;;;;;4.18;2.50;;;;;;;38.02;20.91;99896.00;5091568;28;20107;-43
2023/08/14 10:53:36;;;;;;;4.20;2.40;;;;;;;38.28;20.96;99900.56;5091248;28;20024;-43
2023/08/14 10:56:04;;;;;;;3.53;2.65;;;;;;;38.42;21.40;99891.50;5091419;28;20024;-42
2023/08/14 10:58:35;;;;;;;3.53;2.60;;;;;;;38.37;20.93;99886.34;5091526;28;20093;-43
2023/08/14 11:01:09;;;;;;;3.38;2.60;;;;;;;37.87;20.60;99895.13;5091346;28;20038;-43
2023/08/14 11:04:06;;;;;;;3.75;2.70;;;;;;;36.42;22.48;99887.56;5091471;28;20028;-43
2023/08/14 11:07:11;;;;;;;3.05;2.60;;;;;;;36.74;22.48;99885.25;5085238;28;20039;-43
2023/08/14 11:09:39;;;;;;;4.97;2.60;;;;;;;37.39;22.57;99878.41;5090901;28;20495;-43
2023/08/14 11:12:13;;;;;;;4.93;2.50;;;;;;;37.66;21.98;99878.28;5090853;28;20039;-45
2023/08/14 11:14:40;;;;;;;3.35;2.72;;;;;;;37.70;21.70;99870.78;5072618;28;20601;-44
2023/08/14 11:17:07;;;;;;;3.73;2.40;;;;;;;38.24;21.72;99877.53;5090770;28;20031;-45
2023/08/14 11:19:35;;;;;;;3.50;2.42;;;;;;;38.23;21.45;99869.56;5072742;28;20101;-46
2023/08/14 11:22:00;;;;;;;3.50;2.35;;;;;;;37.66;22.40;99869.97;5090838;28;20051;-43
2023/08/14 11:24:26;;;;;;;2.45;2.15;;;;;;;37.37;22.64;99862.16;5089975;28;20476;-43
2023/08/14 11:26:52;;;;;;;3.75;2.30;;;;;;;35.86;23.67;99856.69;5090505;28;20028;-42
2023/08/14 11:29:18;;;;;;;3.22;2.50;;;;;;;35.17;24.68;99859.44;5090629;28;20173;-44